Time;durP1;ratioP1;P1;durP2;ratioP2;P2;SDS_P1;SDS_P2;PMS_P1;PMS_P2;Temp;Humidity;BMP_temperature;BMP_pressure;BME280_temperature;BME280_humidity;BME280_pressure;Samples;Min_cycle;Max_cycle;Signal;HPM_P1;HPM_P2
2021/06/08 00:00:23;;;;;;;9.52;7.22;;;20.80;99.90;;;;;;5013779;28;20086;-73
2021/06/08 00:02:52;;;;;;;10.98;7.10;;;20.80;99.90;;;;;;5032784;28;20391;-73
2021/06/08 00:05:20;;;;;;;11.82;7.75;;;20.80;99.90;;;;;;5012376;28;20025;-73
2021/06/08 00:07:47;;;;;;;9.18;7.68;;;20.80;99.90;;;;;;5029186;28;20022;-73
2021/06/08 00:10:14;;;;;;;14.50;7.55;;;20.90;99.90;;;;;;5030562;28;20029;-73
2021/06/08 00:12:41;;;;;;;8.45;6.68;;;20.90;99.90;;;;;;5032458;28;20109;-72
2021/06/08 00:15:09;;;;;;;10.20;7.38;;;21.00;99.90;;;;;;5033497;28;20029;-73
2021/06/08 00:17:35;;;;;;;7.53;6.93;;;21.00;99.90;;;;;;5028760;28;20503;-75
2021/06/08 00:20:03;;;;;;;11.63;6.82;;;21.00;99.90;;;;;;5033127;28;20065;-73
2021/06/08 00:22:30;;;;;;;7.32;6.82;;;21.00;99.90;;;;;;5032452;28;20025;-72
2021/06/08 00:24:57;;;;;;;14.95;7.10;;;21.00;99.90;;;;;;5031751;28;20029;-72
2021/06/08 00:27:24;;;;;;;11.23;7.70;;;21.00;99.90;;;;;;5032507;28;20022;-73
2021/06/08 00:29:50;;;;;;;6.82;6.28;;;20.90;99.90;;;;;;5033105;28;20099;-73
2021/06/08 00:32:16;;;;;;;10.13;7.50;;;21.00;99.90;;;;;;5033511;28;20021;-72
2021/06/08 00:34:43;;;;;;;7.63;6.82;;;20.90;99.90;;;;;;5031482;28;20402;-73
2021/06/08 00:37:11;;;;;;;8.68;6.35;;;20.90;99.90;;;;;;5014082;28;20038;-72
2021/06/08 00:39:37;;;;;;;10.25;6.50;;;20.90;99.90;;;;;;5032023;28;20038;-73
2021/06/08 00:42:04;;;;;;;9.65;6.90;;;20.90;99.90;;;;;;5033160;28;20029;-73
2021/06/08 00:44:30;;;;;;;7.25;6.57;;;21.00;99.90;;;;;;5032445;28;20039;-73
2021/06/08 00:46:57;;;;;;;6.07;5.68;;;21.10;99.90;;;;;;5032527;28;20025;-73
2021/06/08 00:49:23;;;;;;;8.00;7.20;;;21.00;99.90;;;;;;5031032;28;20025;-74
2021/06/08 00:51:50;;;;;;;8.00;7.20;;;21.10;99.90;;;;;;5033546;28;20017;-74
2021/06/08 00:54:16;;;;;;;7.45;6.85;;;21.00;99.90;;;;;;5013504;28;20025;-73
2021/06/08 00:56:44;;;;;;;7.50;6.90;;;21.00;99.90;;;;;;5030971;28;20029;-74
2021/06/08 00:59:11;;;;;;;6.95;6.45;;;21.00;99.90;;;;;;5020682;28;20037;-73
2021/06/08 01:01:37;;;;;;;7.88;7.00;;;20.90;99.90;;;;;;5022968;28;20030;-74
2021/06/08 01:04:05;;;;;;;6.97;6.38;;;20.90;99.90;;;;;;5032571;28;20017;-75
2021/06/08 01:06:32;;;;;;;7.57;6.97;;;20.90;99.90;;;;;;5031341;28;20036;-73
2021/06/08 01:08:59;;;;;;;7.32;6.70;;;20.90;99.90;;;;;;5028436;28;20044;-73
2021/06/08 01:11:24;;;;;;;7.85;7.15;;;20.90;99.90;;;;;;5032075;28;20480;-73
2021/06/08 01:13:50;;;;;;;7.55;6.95;;;20.90;99.90;;;;;;5038243;28;20031;-74
2021/06/08 01:16:16;;;;;;;8.10;6.35;;;20.90;99.90;;;;;;5036500;28;20031;-73
2021/06/08 01:18:42;;;;;;;7.93;6.88;;;21.00;99.90;;;;;;5038435;28;20028;-73
2021/06/08 01:21:12;;;;;;;6.63;5.88;;;20.90;99.90;;;;;;5032286;28;20021;-73
2021/06/08 01:23:39;;;;;;;7.72;7.10;;;20.90;99.90;;;;;;5022522;28;20113;-73
2021/06/08 01:26:06;;;;;;;7.80;7.05;;;20.90;99.90;;;;;;5029836;28;20036;-74
2021/06/08 01:28:34;;;;;;;7.45;6.85;;;20.90;99.90;;;;;;5030549;28;20404;-73
2021/06/08 01:31:06;;;;;;;9.68;6.43;;;20.90;99.90;;;;;;5030566;28;20017;-73
2021/06/08 01:33:33;;;;;;;7.35;6.85;;;20.90;99.90;;;;;;5017689;28;20544;-73
2021/06/08 01:36:00;;;;;;;7.97;7.20;;;20.80;99.90;;;;;;5030188;28;20475;-73
2021/06/08 01:38:27;;;;;;;7.57;6.97;;;20.80;99.90;;;;;;5030588;28;20416;-73
2021/06/08 01:40:53;;;;;;;8.05;7.40;;;20.80;99.90;;;;;;5029659;28;20100;-72
2021/06/08 01:43:19;;;;;;;7.88;7.15;;;20.80;99.90;;;;;;5031185;28;20553;-72
2021/06/08 01:45:50;;;;;;;6.88;6.38;;;20.90;99.90;;;;;;5030362;28;20034;-73
2021/06/08 01:48:16;;;;;;;7.13;6.43;;;20.90;99.90;;;;;;5028070;28;20022;-73
2021/06/08 01:50:45;;;;;;;8.02;7.22;;;20.90;99.90;;;;;;5028112;28;20026;-74
2021/06/08 01:53:37;;;;;;;7.63;7.03;;;20.90;99.90;;;;;;5029931;28;20391;-73
2021/06/08 01:56:08;;;;;;;7.72;6.68;;;20.90;99.90;;;;;;5029079;28;20041;-73
2021/06/08 01:59:04;;;;;;;10.80;6.45;;;20.90;99.90;;;;;;5028822;28;20038;-73
2021/06/08 02:01:46;;;;;;;9.57;6.90;;;20.90;99.90;;;;;;5028741;28;20057;-73
2021/06/08 02:04:43;;;;;;;7.40;6.70;;;21.00;99.90;;;;;;5011080;28;20033;-73
2021/06/08 02:07:31;;;;;;;9.07;6.72;;;20.90;99.90;;;;;;5026920;28;20117;-74
2021/06/08 02:10:29;;;;;;;8.82;8.02;;;20.90;99.90;;;;;;5017789;28;20060;-73
2021/06/08 02:13:10;;;;;;;7.78;7.28;;;20.90;99.90;;;;;;5000279;28;20063;-72
2021/06/08 02:15:40;;;;;;;9.43;6.97;;;20.90;99.90;;;;;;5016079;28;20041;-72
2021/06/08 02:18:09;;;;;;;8.25;7.47;;;20.80;99.90;;;;;;5033727;28;21501;-73
2021/06/08 02:20:37;;;;;;;10.38;6.82;;;20.80;99.90;;;;;;5019428;28;20058;-73
2021/06/08 02:23:05;;;;;;;9.13;8.38;;;20.70;99.90;;;;;;5041461;28;20022;-73
2021/06/08 02:25:33;;;;;;;7.90;7.28;;;20.70;99.90;;;;;;5041092;28;20033;-74
2021/06/08 02:28:00;;;;;;;8.20;7.50;;;20.60;99.90;;;;;;5042123;28;20060;-74
2021/06/08 02:30:27;;;;;;;12.30;7.93;;;20.60;99.90;;;;;;5030807;28;20021;-73
2021/06/08 02:32:54;;;;;;;8.40;7.50;;;20.60;99.90;;;;;;5035853;28;20399;-73
2021/06/08 02:35:23;;;;;;;9.02;7.70;;;20.60;99.90;;;;;;5017193;28;20554;-73
2021/06/08 02:37:50;;;;;;;8.60;7.85;;;20.60;99.90;;;;;;5034960;28;20029;-73
2021/06/08 02:40:16;;;;;;;8.73;7.43;;;20.60;99.90;;;;;;5038632;28;20373;-73
2021/06/08 02:42:42;;;;;;;9.02;6.78;;;20.60;99.90;;;;;;5037504;28;20031;-73
2021/06/08 02:45:09;;;;;;;9.30;8.40;;;20.50;99.90;;;;;;5039427;28;20100;-73
2021/06/08 02:47:35;;;;;;;8.30;7.60;;;20.60;99.90;;;;;;5039536;28;20037;-73
2021/06/08 02:50:03;;;;;;;8.05;7.45;;;20.50;99.90;;;;;;5038461;28;20045;-72
2021/06/08 02:52:30;;;;;;;9.40;8.70;;;20.40;99.90;;;;;;5017801;28;20111;-72
2021/06/08 02:55:00;;;;;;;7.80;7.22;;;20.40;99.90;;;;;;5018551;28;20033;-73
2021/06/08 02:57:27;;;;;;;8.65;7.95;;;20.40;99.90;;;;;;5033116;28;20033;-74
2021/06/08 03:00:01;;;;;;;8.45;7.78;;;20.40;99.90;;;;;;5033301;28;20024;-72
2021/06/08 03:02:29;;;;;;;8.93;7.95;;;20.40;99.90;;;;;;5029917;28;20051;-75
2021/06/08 03:05:05;;;;;;;8.93;8.05;;;20.40;99.90;;;;;;5030481;28;20547;-73
2021/06/08 03:07:36;;;;;;;10.55;8.23;;;20.50;99.90;;;;;;5031591;28;20041;-73
2021/06/08 03:10:20;;;;;;;9.20;8.40;;;20.50;99.90;;;;;;4975655;28;20109;-74
2021/06/08 03:12:55;;;;;;;8.85;8.13;;;20.50;99.90;;;;;;5031880;28;20021;-73
2021/06/08 03:15:30;;;;;;;9.00;8.10;;;20.50;99.90;;;;;;5030889;28;20029;-74
2021/06/08 03:17:57;;;;;;;8.65;7.93;;;20.50;99.90;;;;;;5012339;28;20022;-74
2021/06/08 03:20:41;;;;;;;8.52;7.47;;;20.50;99.90;;;;;;5033748;28;20484;-74
2021/06/08 03:23:09;;;;;;;8.02;7.18;;;20.50;99.90;;;;;;5012717;28;20037;-73
2021/06/08 03:25:37;;;;;;;8.13;7.47;;;20.40;99.90;;;;;;5022189;28;20108;-73
2021/06/08 03:28:06;;;;;;;8.65;7.65;;;20.50;99.90;;;;;;5032343;28;20033;-73
2021/06/08 03:30:33;;;;;;;7.93;7.00;;;20.50;99.90;;;;;;5014740;28;20021;-73
2021/06/08 03:32:59;;;;;;;7.72;7.13;;;20.40;99.90;;;;;;5032514;28;20418;-72
2021/06/08 03:35:27;;;;;;;8.07;7.47;;;20.40;99.90;;;;;;5033293;28;20075;-73
2021/06/08 03:37:53;;;;;;;9.23;7.82;;;20.50;99.90;;;;;;5013919;28;20498;-73
2021/06/08 03:40:21;;;;;;;14.00;7.65;;;20.50;99.90;;;;;;5033094;28;20038;-74
2021/06/08 03:42:48;;;;;;;14.07;8.23;;;20.50;99.90;;;;;;5033496;28;20022;-73
2021/06/08 03:45:15;;;;;;;7.85;7.20;;;20.60;99.90;;;;;;5032976;28;20091;-73
2021/06/08 03:47:42;;;;;;;7.25;6.65;;;20.70;99.90;;;;;;5014174;28;20025;-72
2021/06/08 03:50:12;;;;;;;7.82;7.15;;;20.70;99.90;;;;;;5032233;28;20479;-73
2021/06/08 03:52:49;;;;;;;8.05;7.45;;;20.70;99.90;;;;;;5012104;28;20483;-73
2021/06/08 03:55:18;;;;;;;8.25;7.38;;;20.80;99.90;;;;;;5012160;28;20076;-73
2021/06/08 03:57:48;;;;;;;7.72;6.97;;;20.80;99.90;;;;;;5031461;28;20095;-73
2021/06/08 04:00:16;;;;;;;10.98;9.98;;;20.90;99.90;;;;;;5031637;28;20025;-73
2021/06/08 04:02:43;;;;;;;8.43;7.63;;;20.90;99.90;;;;;;5029383;28;20372;-73
2021/06/08 04:05:10;;;;;;;8.35;7.55;;;20.90;99.90;;;;;;5031274;28;20055;-74
2021/06/08 04:07:42;;;;;;;7.88;7.28;;;20.90;99.90;;;;;;5026968;28;20044;-73
2021/06/08 04:10:14;;;;;;;11.43;6.65;;;20.90;99.90;;;;;;5028736;28;20049;-73
2021/06/08 04:12:40;;;;;;;8.13;7.43;;;20.90;99.90;;;;;;5031877;28;20017;-73
2021/06/08 04:15:07;;;;;;;7.78;7.18;;;20.90;99.90;;;;;;5032394;28;20099;-73
2021/06/08 04:17:33;;;;;;;8.02;6.55;;;21.00;99.90;;;;;;5030768;28;20093;-73
2021/06/08 04:20:00;;;;;;;8.45;7.72;;;21.00;99.90;;;;;;5032045;28;20026;-73
2021/06/08 04:22:33;;;;;;;8.20;7.25;;;21.00;99.90;;;;;;5030968;28;20094;-73
2021/06/08 04:24:59;;;;;;;7.20;6.47;;;21.10;99.90;;;;;;5013578;28;20087;-73
2021/06/08 04:27:27;;;;;;;9.45;7.57;;;21.20;99.90;;;;;;5031685;28;20030;-74
2021/06/08 04:29:53;;;;;;;7.38;6.35;;;21.30;99.90;;;;;;5009042;28;20022;-73
2021/06/08 04:32:20;;;;;;;7.75;7.22;;;21.30;99.90;;;;;;5029294;28;20100;-74
2021/06/08 04:34:54;;;;;;;9.02;8.07;;;21.40;99.90;;;;;;5028249;28;20083;-74
2021/06/08 04:37:20;;;;;;;7.22;6.63;;;21.40;99.90;;;;;;5025262;28;20029;-74
2021/06/08 04:39:47;;;;;;;8.70;7.90;;;21.50;99.90;;;;;;5012548;28;20025;-74
2021/06/08 04:42:15;;;;;;;9.40;8.50;;;21.60;99.90;;;;;;5032457;28;20041;-74
2021/06/08 04:44:49;;;;;;;6.95;6.45;;;21.70;99.90;;;;;;5014491;28;20030;-73
2021/06/08 04:47:19;;;;;;;10.52;7.45;;;21.70;99.90;;;;;;5030798;28;20064;-73
2021/06/08 04:49:45;;;;;;;7.90;7.22;;;21.80;99.90;;;;;;5031515;28;20387;-73
2021/06/08 04:52:12;;;;;;;8.10;7.50;;;21.90;99.90;;;;;;5031359;28;20029;-74
2021/06/08 04:54:38;;;;;;;9.57;7.22;;;21.90;99.90;;;;;;5013726;28;20390;-74
2021/06/08 04:57:05;;;;;;;8.30;7.38;;;21.90;99.90;;;;;;5029937;28;20091;-73
2021/06/08 04:59:46;;;;;;;8.02;7.25;;;21.90;99.90;;;;;;5032252;28;20060;-73
2021/06/08 05:02:22;;;;;;;7.53;6.82;;;21.90;99.90;;;;;;5013248;28;20036;-74
2021/06/08 05:04:48;;;;;;;8.23;7.43;;;21.90;99.90;;;;;;5031981;28;20036;-74
2021/06/08 05:07:17;;;;;;;10.88;7.53;;;21.80;99.90;;;;;;5032298;28;20033;-74
2021/06/08 05:09:46;;;;;;;12.57;8.98;;;21.70;99.90;;;;;;5031958;28;20364;-73
2021/06/08 05:12:14;;;;;;;13.60;9.73;;;21.70;99.90;;;;;;5031383;28;20044;-75
2021/06/08 05:14:52;;;;;;;9.00;7.97;;;21.70;99.90;;;;;;5031869;28;20021;-76
2021/06/08 05:17:21;;;;;;;8.90;8.10;;;21.80;99.90;;;;;;5010857;28;20486;-74
2021/06/08 05:19:49;;;;;;;6.93;6.40;;;21.90;99.90;;;;;;5031682;28;20052;-74
2021/06/08 05:22:23;;;;;;;8.80;8.10;;;22.00;99.90;;;;;;5027120;28;20043;-74
2021/06/08 05:24:51;;;;;;;7.40;6.88;;;22.00;99.90;;;;;;5021476;28;20036;-75
2021/06/08 05:27:21;;;;;;;7.68;7.05;;;22.10;99.90;;;;;;5022941;28;20029;-72
2021/06/08 05:29:52;;;;;;;8.77;7.88;;;22.10;99.90;;;;;;5031601;28;20021;-73
2021/06/08 05:32:17;;;;;;;12.27;7.55;;;22.10;99.90;;;;;;5030901;28;20053;-73
2021/06/08 05:34:44;;;;;;;9.57;6.95;;;22.00;99.90;;;;;;5030849;28;20037;-74
2021/06/08 05:37:12;;;;;;;9.85;7.55;;;22.00;99.90;;;;;;5030964;28;20035;-74
2021/06/08 05:39:39;;;;;;;9.43;7.53;;;22.10;99.90;;;;;;5015114;28;20036;-74
2021/06/08 05:42:07;;;;;;;9.88;9.10;;;22.20;99.90;;;;;;5014218;28;20491;-73
2021/06/08 05:44:34;;;;;;;8.15;7.55;;;22.20;99.90;;;;;;5030661;28;20328;-66
2021/06/08 05:47:05;;;;;;;11.45;9.18;;;22.20;99.90;;;;;;5029066;28;20037;-66
2021/06/08 05:49:32;;;;;;;10.75;7.57;;;22.20;99.90;;;;;;5030816;28;20071;-66
2021/06/08 05:51:59;;;;;;;11.38;8.15;;;22.20;99.90;;;;;;5029335;28;20042;-64
2021/06/08 05:54:29;;;;;;;8.57;7.78;;;22.20;99.90;;;;;;5027796;28;20033;-66
2021/06/08 05:56:56;;;;;;;7.85;7.20;;;22.40;99.90;;;;;;5030676;28;20082;-65
2021/06/08 05:59:23;;;;;;;9.32;8.43;;;22.50;99.90;;;;;;5030279;28;20545;-64
2021/06/08 06:01:49;;;;;;;9.40;8.55;;;22.60;99.90;;;;;;5029282;28;20075;-66
2021/06/08 06:04:17;;;;;;;10.32;7.65;;;22.70;99.90;;;;;;5029664;28;20403;-66
2021/06/08 06:06:45;;;;;;;9.23;8.38;;;22.80;99.90;;;;;;5030790;28;20025;-68
2021/06/08 06:09:12;;;;;;;9.70;8.02;;;22.90;99.90;;;;;;5030273;28;20029;-67
2021/06/08 06:11:41;;;;;;;10.90;7.88;;;23.10;99.90;;;;;;5029079;28;20032;-66
2021/06/08 06:14:08;;;;;;;8.45;6.60;;;23.20;99.90;;;;;;5028668;28;20236;-72
2021/06/08 06:16:39;;;;;;;11.30;7.75;;;23.30;99.90;;;;;;5029794;28;20021;-74
2021/06/08 06:19:07;;;;;;;8.63;7.75;;;23.40;99.90;;;;;;5030167;28;20479;-74
2021/06/08 06:21:34;;;;;;;10.00;8.13;;;23.50;99.90;;;;;;5030054;28;20083;-74
2021/06/08 06:24:01;;;;;;;9.00;8.30;;;23.60;99.90;;;;;;5028900;28;20033;-74
2021/06/08 06:26:27;;;;;;;7.63;7.10;;;23.70;99.90;;;;;;5030089;28;20063;-75
2021/06/08 06:28:54;;;;;;;7.55;6.85;;;23.80;99.90;;;;;;5013221;28;20044;-75
2021/06/08 06:31:23;;;;;;;9.25;7.55;;;23.90;99.90;;;;;;5030975;28;20095;-74
2021/06/08 06:33:53;;;;;;;7.80;7.05;;;24.00;99.90;;;;;;5030300;28;20025;-75
2021/06/08 06:36:21;;;;;;;9.05;8.32;;;24.10;99.90;;;;;;5030256;28;20371;-76
2021/06/08 06:38:51;;;;;;;10.85;7.15;;;24.20;99.90;;;;;;5030774;28;20543;-76
2021/06/08 06:41:19;;;;;;;8.52;7.38;;;24.20;99.90;;;;;;5028804;28;20025;-74
2021/06/08 06:43:54;;;;;;;10.93;9.88;;;24.40;99.90;;;;;;5029548;28;20125;-74
2021/06/08 06:46:22;;;;;;;8.35;7.68;;;24.50;99.90;;;;;;5029508;28;20079;-74
2021/06/08 06:48:52;;;;;;;12.18;9.50;;;24.60;99.90;;;;;;5030172;28;20025;-74
2021/06/08 06:51:19;;;;;;;7.22;6.60;;;24.80;99.90;;;;;;5030734;28;20425;-73
2021/06/08 06:53:49;;;;;;;8.32;7.63;;;24.90;99.90;;;;;;5026652;28;20045;-73
2021/06/08 06:56:17;;;;;;;8.77;7.97;;;24.80;99.90;;;;;;5025146;28;20029;-74
2021/06/08 06:58:44;;;;;;;6.95;6.35;;;24.80;99.90;;;;;;5012778;28;20041;-74
2021/06/08 07:01:11;;;;;;;8.68;7.78;;;24.80;99.90;;;;;;5024031;28;20029;-75
2021/06/08 07:03:38;;;;;;;8.57;7.50;;;24.90;99.90;;;;;;5018006;28;20426;-75
2021/06/08 07:06:05;;;;;;;8.77;6.30;;;24.80;99.90;;;;;;5032330;28;20459;-74
2021/06/08 07:08:33;;;;;;;8.02;7.30;;;24.70;99.90;;;;;;5034281;28;20509;-74
2021/06/08 07:11:00;;;;;;;8.52;7.68;;;24.80;99.90;;;;;;5033915;28;20471;-75
2021/06/08 07:13:27;;;;;;;8.10;6.85;;;25.00;99.90;;;;;;5029521;28;20028;-74
2021/06/08 07:15:54;;;;;;;7.50;6.90;;;25.10;99.90;;;;;;5033457;28;20040;-74
2021/06/08 07:18:24;;;;;;;7.43;6.93;;;25.10;99.90;;;;;;5034597;28;20548;-74
2021/06/08 07:21:26;;;;;;;6.68;6.20;;;25.10;99.90;;;;;;5011314;28;20472;-73
2021/06/08 07:24:15;;;;;;;9.35;7.40;;;25.00;99.90;;;;;;5027084;28;20048;-73
2021/06/08 07:26:59;;;;;;;8.20;7.60;;;25.10;99.90;;;;;;5033138;28;20048;-73
2021/06/08 07:29:29;;;;;;;14.05;8.13;;;25.20;99.90;;;;;;5032609;28;20029;-72
2021/06/08 07:32:13;;;;;;;8.77;6.88;;;25.40;99.90;;;;;;5031190;28;20025;-72
2021/06/08 07:34:55;;;;;;;7.28;6.65;;;25.40;99.90;;;;;;5028232;28;20375;-72
2021/06/08 07:37:45;;;;;;;9.48;8.63;;;25.50;99.90;;;;;;5032533;28;20522;-72
2021/06/08 07:40:29;;;;;;;8.85;8.05;;;25.60;99.90;;;;;;5033659;28;20025;-73
2021/06/08 07:43:04;;;;;;;7.50;6.97;;;25.80;99.90;;;;;;5024198;28;20040;-72
2021/06/08 07:45:49;;;;;;;10.82;7.43;;;25.90;99.90;;;;;;5023117;28;20503;-72
2021/06/08 07:48:26;;;;;;;7.53;6.50;;;25.70;99.90;;;;;;5034062;28;20038;-72
2021/06/08 07:51:14;;;;;;;7.05;6.35;;;25.80;99.90;;;;;;5018758;28;20068;-73
2021/06/08 07:54:01;;;;;;;9.23;7.72;;;25.80;99.90;;;;;;5015589;28;20053;-73
2021/06/08 07:56:47;;;;;;;7.10;6.60;;;25.90;99.90;;;;;;5019745;28;20504;-72
2021/06/08 07:59:16;;;;;;;8.25;7.55;;;26.20;99.90;;;;;;5031828;28;20049;-73
2021/06/08 08:01:47;;;;;;;7.28;6.57;;;26.10;99.90;;;;;;5024533;28;20041;-74
2021/06/08 08:04:52;;;;;;;9.35;7.25;;;26.10;99.90;;;;;;5027219;28;20025;-74
2021/06/08 08:07:35;;;;;;;8.65;6.50;;;26.20;99.90;;;;;;5008077;28;20052;-75
2021/06/08 08:10:05;;;;;;;10.35;6.78;;;26.30;99.90;;;;;;5008259;28;20041;-74
2021/06/08 08:13:05;;;;;;;8.90;8.13;;;26.40;99.90;;;;;;5027883;28;20037;-73
2021/06/08 08:15:48;;;;;;;8.15;5.50;;;26.40;99.90;;;;;;5031155;28;20518;-73
2021/06/08 08:18:38;;;;;;;6.30;5.60;;;26.70;99.90;;;;;;5028356;28;20037;-73
2021/06/08 08:21:35;;;;;;;10.23;5.27;;;26.40;99.90;;;;;;5031357;28;20091;-73
2021/06/08 08:24:02;;;;;;;5.25;4.95;;;26.40;99.90;;;;;;5032116;28;20268;-71
2021/06/08 08:26:53;;;;;;;8.45;6.13;;;26.50;99.90;;;;;;5031958;28;20052;-71
2021/06/08 08:29:27;;;;;;;13.93;5.68;;;26.70;99.90;;;;;;5003881;28;20038;-72
2021/06/08 08:31:59;;;;;;;6.03;5.32;;;26.60;99.90;;;;;;5027111;28;20042;-72
2021/06/08 08:34:54;;;;;;;6.73;6.33;;;26.70;99.90;;;;;;5023173;28;20041;-72
2021/06/08 08:37:23;;;;;;;6.03;5.55;;;26.70;99.90;;;;;;5024642;28;20280;-72
2021/06/08 08:39:51;;;;;;;16.38;8.52;;;26.80;99.90;;;;;;5022903;28;20046;-74
2021/06/08 08:42:25;;;;;;;41.35;13.50;;;26.90;99.90;;;;;;5006790;28;20036;-73
2021/06/08 08:44:57;;;;;;;18.35;10.18;;;26.50;99.90;;;;;;5007834;28;20041;-70
2021/06/08 08:47:37;;;;;;;11.55;8.73;;;26.20;99.90;;;;;;5006666;28;20053;-66
2021/06/08 08:50:06;;;;;;;9.82;8.90;;;26.00;99.90;;;;;;5009388;28;20810;-70
2021/06/08 08:52:56;;;;;;;9.60;8.55;;;25.60;99.90;;;;;;5023051;28;20128;-68
2021/06/08 08:55:47;;;;;;;9.25;8.48;;;25.30;99.90;;;;;;5023519;28;20599;-67
2021/06/08 08:58:22;;;;;;;8.98;7.50;;;25.20;99.90;;;;;;5019727;28;20045;-68
2021/06/08 09:01:09;;;;;;;14.02;8.02;;;25.20;99.90;;;;;;5015880;28;20048;-68
2021/06/08 09:03:38;;;;;;;10.25;8.00;;;25.20;99.90;;;;;;5020143;28;20211;-73
2021/06/08 09:06:54;;;;;;;13.02;8.55;;;25.20;99.90;;;;;;5029787;28;20048;-75
2021/06/08 09:09:21;;;;;;;10.77;8.40;;;25.30;99.90;;;;;;5010400;28;20044;-74
2021/06/08 09:11:47;;;;;;;14.00;8.35;;;25.40;99.90;;;;;;4996639;28;20042;-75
2021/06/08 09:14:18;;;;;;;9.77;7.03;;;25.60;99.90;;;;;;5031236;28;20452;-73
2021/06/08 09:17:15;;;;;;;8.38;7.72;;;25.60;99.90;;;;;;5029687;28;20045;-74
2021/06/08 09:19:58;;;;;;;9.40;8.48;;;25.60;99.90;;;;;;5026120;28;20030;-74
2021/06/08 09:22:59;;;;;;;17.70;8.35;;;25.70;99.90;;;;;;4996846;28;20037;-74
2021/06/08 09:25:50;;;;;;;9.27;8.40;;;25.80;99.90;;;;;;5030814;28;20320;-75
2021/06/08 09:28:22;;;;;;;9.38;8.48;;;26.00;99.90;;;;;;4997561;28;20032;-73
2021/06/08 09:31:13;;;;;;;;;;;25.90;99.90;;;;;;5013628;28;20093;-73
2021/06/08 09:34:07;;;;;;;11.20;8.73;;;25.80;99.90;;;;;;5030766;28;19915;-74
2021/06/08 09:36:39;;;;;;;12.50;8.30;;;25.60;99.90;;;;;;5030289;28;20033;-72
2021/06/08 09:39:20;;;;;;;8.48;7.65;;;25.50;99.90;;;;;;5027345;28;20045;-74
2021/06/08 09:41:51;;;;;;;10.00;7.95;;;25.60;99.90;;;;;;5031508;28;20026;-73
2021/06/08 09:44:23;;;;;;;8.68;7.93;;;25.50;99.90;;;;;;5014419;28;20041;-73
2021/06/08 09:46:55;;;;;;;7.18;6.47;;;25.60;99.90;;;;;;5030389;28;20037;-74
2021/06/08 09:50:05;;;;;;;8.27;7.47;;;25.70;99.90;;;;;;5025144;28;20030;-73
2021/06/08 09:52:37;;;;;;;6.85;6.25;;;25.90;99.90;;;;;;5012291;28;20551;-74
2021/06/08 09:55:07;;;;;;;10.13;7.43;;;26.10;99.90;;;;;;4999221;28;20037;-74
2021/06/08 09:57:35;;;;;;;6.97;6.43;;;26.20;99.90;;;;;;5029818;28;20036;-72
2021/06/08 10:00:08;;;;;;;9.05;6.60;;;26.20;99.90;;;;;;5029342;28;20073;-73
2021/06/08 10:03:03;;;;;;;9.13;7.47;;;26.20;99.90;;;;;;5015231;28;20045;-74
2021/06/08 10:05:53;;;;;;;10.57;8.63;;;26.30;99.90;;;;;;5024360;28;20061;-73
2021/06/08 10:08:30;;;;;;;9.40;8.52;;;26.30;99.90;;;;;;5027007;28;20069;-73
2021/06/08 10:11:18;;;;;;;8.55;6.82;;;26.50;99.90;;;;;;5016759;28;20052;-73
2021/06/08 10:14:13;;;;;;;9.27;8.48;;;26.60;99.90;;;;;;5028995;28;20037;-73
2021/06/08 10:16:39;;;;;;;10.15;9.45;;;26.60;99.90;;;;;;5025906;28;20120;-74
2021/06/08 10:19:26;;;;;;;10.27;8.23;;;26.50;99.90;;;;;;5012125;28;20503;-73
2021/06/08 10:22:08;;;;;;;9.77;8.23;;;26.50;99.90;;;;;;5026062;28;20053;-73
2021/06/08 10:24:34;;;;;;;10.60;7.10;;;26.60;99.90;;;;;;4994586;28;20120;-73
2021/06/08 10:27:00;;;;;;;14.43;7.78;;;26.70;99.90;;;;;;5030686;28;20103;-74
2021/06/08 10:29:30;;;;;;;12.38;7.78;;;26.70;99.90;;;;;;5032305;28;20017;-75
2021/06/08 10:31:58;;;;;;;8.70;7.13;;;26.90;99.90;;;;;;5030782;28;20028;-72
2021/06/08 10:34:24;;;;;;;7.53;6.82;;;26.90;99.90;;;;;;5039162;28;20108;-73
2021/06/08 10:36:50;;;;;;;7.45;6.88;;;27.00;99.90;;;;;;5024004;28;20510;-73
2021/06/08 10:39:22;;;;;;;8.38;6.93;;;27.10;99.90;;;;;;5041817;28;20037;-73
2021/06/08 10:41:57;;;;;;;11.43;7.35;;;27.20;99.90;;;;;;5044974;28;20092;-74
2021/06/08 10:44:28;;;;;;;9.52;6.22;;;27.20;99.90;;;;;;5026901;28;20403;-72
2021/06/08 10:47:02;;;;;;;8.35;7.07;;;27.40;99.90;;;;;;5040715;28;20535;-73
2021/06/08 10:49:35;;;;;;;10.45;6.75;;;27.50;99.90;;;;;;5044931;28;20025;-71
2021/06/08 10:52:09;;;;;;;7.15;6.10;;;27.30;99.90;;;;;;5044403;28;20352;-74
2021/06/08 10:54:51;;;;;;;6.93;6.25;;;27.20;99.90;;;;;;5041692;28;20065;-73
2021/06/08 10:57:17;;;;;;;;;;;26.90;99.90;;;;;;5024962;28;20552;-72
2021/06/08 10:59:51;;;;;;;7.00;6.50;;;27.00;99.90;;;;;;5027330;28;19970;-71
2021/06/08 11:02:45;;;;;;;8.38;6.63;;;27.10;99.90;;;;;;5024034;28;20064;-72
2021/06/08 11:05:13;;;;;;;6.90;5.85;;;27.40;99.90;;;;;;5033398;28;20487;-72
2021/06/08 11:07:49;;;;;;;6.75;6.15;;;27.50;99.90;;;;;;5035993;28;20071;-72
2021/06/08 11:10:27;;;;;;;7.22;6.55;;;27.40;99.90;;;;;;5035673;28;20026;-72
2021/06/08 11:13:25;;;;;;;7.80;6.28;;;27.30;99.90;;;;;;5038996;28;20021;-75
2021/06/08 11:15:51;;;;;;;7.65;6.88;;;27.00;99.90;;;;;;4975584;28;20132;-72
2021/06/08 11:18:20;;;;;;;8.93;6.40;;;26.70;99.90;;;;;;5039155;28;20045;-73
2021/06/08 11:21:06;;;;;;;7.13;6.53;;;26.60;99.90;;;;;;5035243;28;20029;-71
2021/06/08 11:23:43;;;;;;;10.80;5.70;;;26.50;99.90;;;;;;5030211;28;20017;-72
2021/06/08 11:26:19;;;;;;;9.27;5.63;;;26.40;99.90;;;;;;5033670;28;20026;-73
2021/06/08 11:28:53;;;;;;;11.30;6.25;;;26.30;99.90;;;;;;5033521;28;20031;-73
2021/06/08 11:31:22;;;;;;;6.40;5.78;;;26.40;99.90;;;;;;5015283;28;20049;-73
2021/06/08 11:33:50;;;;;;;10.88;5.95;;;26.40;99.90;;;;;;5031569;28;20028;-73
2021/06/08 11:36:22;;;;;;;7.43;6.57;;;26.40;99.90;;;;;;5032637;28;20491;-72
2021/06/08 11:38:53;;;;;;;11.00;6.60;;;26.40;99.90;;;;;;5033781;28;20157;-72
2021/06/08 11:41:20;;;;;;;18.90;7.83;;;26.30;99.90;;;;;;5034883;28;20066;-75
2021/06/08 11:43:56;;;;;;;9.45;7.05;;;26.10;99.90;;;;;;5032710;28;20316;-72
2021/06/08 11:46:35;;;;;;;20.35;8.30;;;25.80;99.90;;;;;;5014435;28;20111;-73
2021/06/08 11:49:17;;;;;;;14.65;7.43;;;25.50;99.90;;;;;;5030512;28;20442;-73
2021/06/08 11:52:13;;;;;;;13.25;7.60;;;25.30;99.90;;;;;;5029658;28;20053;-74
2021/06/08 11:54:41;;;;;;;18.45;9.05;;;25.20;99.90;;;;;;5009067;28;20029;-73
2021/06/08 11:57:12;;;;;;;36.78;10.25;;;25.10;99.90;;;;;;5015082;28;20037;-73
2021/06/08 11:59:47;;;;;;;22.15;10.05;;;25.00;99.90;;;;;;5031513;28;20455;-73
2021/06/08 12:02:33;;;;;;;28.42;8.88;;;25.00;99.90;;;;;;5030356;28;20029;-74
2021/06/08 12:05:26;;;;;;;28.08;9.13;;;25.00;99.90;;;;;;5014108;28;20025;-74
2021/06/08 12:08:03;;;;;;;22.75;9.57;;;25.10;99.90;;;;;;5028996;28;20574;-72
2021/06/08 12:10:31;;;;;;;20.50;8.32;;;25.20;99.90;;;;;;5032119;28;20033;-73
2021/06/08 12:12:57;;;;;;;21.20;9.57;;;25.40;99.90;;;;;;5033098;28;20072;-73
2021/06/08 12:15:29;;;;;;;18.85;9.23;;;25.40;99.90;;;;;;5033736;28;20582;-73
2021/06/08 12:18:03;;;;;;;32.80;10.88;;;25.40;99.90;;;;;;5013299;28;20524;-73
2021/06/08 12:20:35;;;;;;;30.00;9.85;;;25.60;99.90;;;;;;5014030;28;20128;-72
2021/06/08 12:23:01;;;;;;;16.23;8.73;;;25.70;99.90;;;;;;4997835;28;20411;-72
2021/06/08 12:25:27;;;;;;;20.45;9.18;;;25.80;99.90;;;;;;5032271;28;20025;-73
2021/06/08 12:27:53;;;;;;;21.55;8.73;;;26.00;99.90;;;;;;5014060;28;20038;-74
2021/06/08 12:30:22;;;;;;;27.60;9.13;;;26.20;99.90;;;;;;5032442;28;20483;-74
2021/06/08 12:32:59;;;;;;;15.35;9.05;;;26.40;99.90;;;;;;5032530;28;20037;-75
2021/06/08 12:35:31;;;;;;;19.15;8.65;;;26.50;99.90;;;;;;5031363;28;20029;-73
2021/06/08 12:38:28;;;;;;;14.02;6.85;;;26.50;99.90;;;;;;5030942;28;20084;-73
2021/06/08 12:41:15;;;;;;;28.00;8.13;;;26.80;99.90;;;;;;5015844;28;20037;-73
2021/06/08 12:43:44;;;;;;;21.55;9.27;;;27.30;99.90;;;;;;5013310;28;20029;-72
2021/06/08 12:46:20;;;;;;;12.93;7.38;;;27.80;99.90;;;;;;5031792;28;20176;-71
2021/06/08 12:48:46;;;;;;;13.45;8.10;;;28.20;99.90;;;;;;5032294;28;20388;-72
2021/06/08 12:51:13;;;;;;;12.25;8.02;;;28.30;99.90;;;;;;5032261;28;20028;-71
2021/06/08 12:53:39;;;;;;;23.60;8.23;;;27.80;99.90;;;;;;5013333;28;20128;-71
2021/06/08 12:56:05;;;;;;;14.65;8.18;;;27.50;99.90;;;;;;5030889;28;20033;-72
2021/06/08 12:58:33;;;;;;;8.18;7.50;;;27.20;99.90;;;;;;5013303;28;20087;-73
2021/06/08 13:00:59;;;;;;;16.55;7.75;;;27.20;99.90;;;;;;5031984;28;20025;-71
2021/06/08 13:03:26;;;;;;;9.95;6.78;;;27.10;99.90;;;;;;5028373;28;20033;-72
2021/06/08 13:05:52;;;;;;;8.43;7.25;;;27.10;99.90;;;;;;4999549;28;20116;-71
2021/06/08 13:08:25;;;;;;;12.45;7.85;;;27.20;99.90;;;;;;5028849;28;20092;-72
2021/06/08 13:10:52;;;;;;;10.35;8.40;;;27.20;99.90;;;;;;5031532;28;20037;-72